createdAt,value
2022-09-16T00:02:04.540Z,24.20
2022-09-16T00:05:06.691Z,24.00
2022-09-16T00:08:08.216Z,24.20
2022-09-16T00:11:09.477Z,24.10
2022-09-16T00:14:13.874Z,24.20
2022-09-16T00:17:17.902Z,24.00
2022-09-16T00:20:19.762Z,23.80
2022-09-16T00:23:21.175Z,24.00
2022-09-16T00:26:22.675Z,24.10
2022-09-16T00:29:24.166Z,24.00
2022-09-16T00:32:25.586Z,24.00
2022-09-16T00:35:27.450Z,24.50
2022-09-16T00:38:28.872Z,23.80
2022-09-16T00:41:32.436Z,24.30
2022-09-16T00:44:45.055Z,24.30
2022-09-16T00:47:51.934Z,23.90
2022-09-16T00:50:55.677Z,24.40
2022-09-16T00:54:02.337Z,25.10
2022-09-16T00:57:05.747Z,24.40
2022-09-16T01:00:12.620Z,23.90
2022-09-16T01:03:13.904Z,24.20
2022-09-16T01:06:16.210Z,24.30
2022-09-16T01:09:18.892Z,24.20
2022-09-16T01:12:20.243Z,24.10
2022-09-16T01:15:23.238Z,24.00
2022-09-16T01:18:30.478Z,23.70
2022-09-16T01:21:38.127Z,24.20
2022-09-16T01:24:48.398Z,23.80
2022-09-16T01:28:00.510Z,23.90
2022-09-16T01:31:08.315Z,23.70
2022-09-16T01:34:13.818Z,24.10
2022-09-16T01:37:19.703Z,23.90
2022-09-16T01:40:24.272Z,24.00
2022-09-16T01:43:28.886Z,23.90
2022-09-16T01:46:36.317Z,23.60
2022-09-16T01:49:42.849Z,23.80
2022-09-16T01:52:48.009Z,24.20
2022-09-16T01:55:52.260Z,23.90
2022-09-16T01:58:57.068Z,23.80
2022-09-16T02:02:05.469Z,23.70
2022-09-16T02:05:08.764Z,23.80
2022-09-16T02:08:11.352Z,23.80
2022-09-16T02:11:17.561Z,24.00
2022-09-16T02:14:21.269Z,24.00
2022-09-16T02:17:25.790Z,23.90
2022-09-16T02:20:28.133Z,23.70
2022-09-16T02:23:32.571Z,23.80
2022-09-16T02:26:36.353Z,24.00
2022-09-16T02:29:40.594Z,23.90
2022-09-16T02:32:45.224Z,23.70
2022-09-16T02:35:47.767Z,24.00
2022-09-16T02:38:51.088Z,24.10
2022-09-16T02:41:54.430Z,23.80
2022-09-16T02:44:56.240Z,23.90
2022-09-16T02:48:02.405Z,23.80
2022-09-16T02:51:09.684Z,23.70
2022-09-16T02:54:15.305Z,23.80
2022-09-16T02:57:16.797Z,23.70
2022-09-16T03:00:18.120Z,23.80
2022-09-16T03:03:20.532Z,23.80
2022-09-16T03:06:22.669Z,23.90
2022-09-16T03:09:24.214Z,23.60
2022-09-16T03:12:35.685Z,23.80
2022-09-16T03:15:46.048Z,23.90
2022-09-16T03:18:54.728Z,23.70
2022-09-16T03:22:01.355Z,23.60
2022-09-16T03:25:07.307Z,23.50
2022-09-16T03:28:11.308Z,23.50
2022-09-16T03:31:16.009Z,23.70
2022-09-16T03:34:20.791Z,23.60
2022-09-16T03:37:23.052Z,23.60
2022-09-16T03:40:24.496Z,24.00
2022-09-16T03:43:25.931Z,24.40
2022-09-16T03:46:28.177Z,24.10
2022-09-16T03:49:30.027Z,23.90
2022-09-16T03:52:31.300Z,23.70
2022-09-16T03:55:32.562Z,23.60
2022-09-16T03:58:33.882Z,23.70
2022-09-16T04:01:35.184Z,23.60
2022-09-16T04:04:37.313Z,23.50
2022-09-16T04:07:38.614Z,23.70
2022-09-16T04:10:39.847Z,23.70
2022-09-16T04:13:41.237Z,24.00
2022-09-16T04:16:45.180Z,23.80
2022-09-16T04:19:47.289Z,23.80
2022-09-16T04:22:48.522Z,23.50
2022-09-16T04:25:53.287Z,23.70
2022-09-16T04:28:54.575Z,23.50
2022-09-16T04:31:55.844Z,23.80
2022-09-16T04:34:57.906Z,23.50
2022-09-16T04:37:59.157Z,23.80
2022-09-16T04:41:00.960Z,23.90
2022-09-16T04:44:02.730Z,23.80
2022-09-16T04:47:04.451Z,23.80
2022-09-16T04:50:06.597Z,23.70
2022-09-16T04:53:07.838Z,23.50
2022-09-16T04:56:12.365Z,23.50
2022-09-16T04:59:14.006Z,23.50
2022-09-16T05:02:15.345Z,23.90
2022-09-16T05:05:20.378Z,23.50
2022-09-16T05:08:21.630Z,23.40
2022-09-16T05:11:23.671Z,23.60
2022-09-16T05:14:28.225Z,23.90
2022-09-16T05:17:49.848Z,23.50
2022-09-16T05:20:56.415Z,23.60
2022-09-16T05:23:59.479Z,23.50
2022-09-16T05:27:01.016Z,23.40
2022-09-16T05:30:02.385Z,23.40
2022-09-16T05:33:03.648Z,23.30
2022-09-16T05:36:06.523Z,23.50
2022-09-16T05:39:24.897Z,23.80
2022-09-16T05:42:26.537Z,23.50
2022-09-16T05:45:32.177Z,23.60
2022-09-16T05:48:34.708Z,23.70
2022-09-16T05:51:40.507Z,23.70
2022-09-16T05:54:41.812Z,23.70
2022-09-16T05:57:43.098Z,23.90
2022-09-16T06:00:45.481Z,23.70
2022-09-16T06:03:47.631Z,23.70
2022-09-16T06:06:49.673Z,23.40
2022-09-16T06:09:52.287Z,23.40
2022-09-16T06:12:54.128Z,23.70
2022-09-16T06:15:55.560Z,23.60
2022-09-16T06:18:56.928Z,23.80
2022-09-16T06:22:01.860Z,23.40
2022-09-16T06:25:03.331Z,23.70
2022-09-16T06:28:04.893Z,23.50
2022-09-16T06:31:07.170Z,23.70
2022-09-16T06:34:12.465Z,23.70
2022-09-16T06:37:15.106Z,23.60
2022-09-16T06:40:16.885Z,23.10
2022-09-16T06:43:21.388Z,23.70
2022-09-16T06:46:23.646Z,23.40
2022-09-16T06:49:25.111Z,23.50
2022-09-16T06:52:27.600Z,23.30
2022-09-16T06:55:29.101Z,23.40
2022-09-16T06:58:31.644Z,23.20
2022-09-16T07:01:36.357Z,23.30
2022-09-16T07:04:38.220Z,23.70
2022-09-16T07:07:43.391Z,22.80
2022-09-16T07:10:44.650Z,23.10
2022-09-16T07:13:46.572Z,23.30
2022-09-16T07:16:47.957Z,23.10
2022-09-16T07:19:49.384Z,23.30
2022-09-16T07:22:53.208Z,23.10
2022-09-16T07:25:59.077Z,23.10
2022-09-16T07:29:01.659Z,23.10
2022-09-16T07:32:03.108Z,23.00
2022-09-16T07:35:04.649Z,22.80
2022-09-16T07:38:06.771Z,23.10
2022-09-16T07:41:10.763Z,23.10
2022-09-16T07:44:13.343Z,23.10
2022-09-16T07:47:17.825Z,23.00
2022-09-16T07:50:22.883Z,22.90
2022-09-16T07:53:29.488Z,23.00
2022-09-16T07:56:33.799Z,23.10
2022-09-16T07:59:35.060Z,22.70
2022-09-16T08:02:36.619Z,23.20
2022-09-16T08:05:37.993Z,23.10
2022-09-16T08:08:40.434Z,23.00
2022-09-16T08:11:42.305Z,23.00
2022-09-16T08:14:43.606Z,23.10
2022-09-16T08:17:44.979Z,22.90
2022-09-16T08:20:46.377Z,23.00
2022-09-16T08:23:48.481Z,23.10
2022-09-16T08:26:49.869Z,23.10
2022-09-16T08:29:51.263Z,22.90
2022-09-16T08:32:55.109Z,23.10
2022-09-16T08:35:58.118Z,22.90
2022-09-16T08:39:00.736Z,23.30
2022-09-16T08:42:08.557Z,23.20
2022-09-16T08:45:18.370Z,23.40
2022-09-16T08:48:28.719Z,23.20
2022-09-16T08:51:31.630Z,23.40
2022-09-16T08:54:36.861Z,23.60
2022-09-16T08:57:39.245Z,23.50
2022-09-16T09:00:41.660Z,23.60
2022-09-16T09:03:43.845Z,23.60
2022-09-16T09:06:50.461Z,23.60
2022-09-16T09:10:00.379Z,23.80
2022-09-16T09:13:07.413Z,23.60
2022-09-16T09:16:12.490Z,23.90
2022-09-16T09:19:21.560Z,24.00
2022-09-16T09:22:27.170Z,23.70
2022-09-16T09:25:35.277Z,24.00
2022-09-16T09:28:42.167Z,24.00
2022-09-16T09:31:47.448Z,23.90
2022-09-16T09:34:58.499Z,23.90
2022-09-16T09:38:11.679Z,23.90
2022-09-16T09:41:18.631Z,24.00
2022-09-16T09:44:29.273Z,23.80
2022-09-16T09:47:33.274Z,24.00
2022-09-16T09:50:39.615Z,24.10
2022-09-16T09:53:44.039Z,24.20
2022-09-16T09:56:47.818Z,24.00
2022-09-16T09:59:50.488Z,24.40
2022-09-16T10:02:52.123Z,24.30
2022-09-16T10:05:53.951Z,24.20
2022-09-16T10:08:56.331Z,24.20
2022-09-16T10:11:58.947Z,24.40
2022-09-16T10:15:00.809Z,24.20
2022-09-16T10:18:08.945Z,24.30
2022-09-16T10:21:11.939Z,24.00
2022-09-16T10:24:26.563Z,24.30
2022-09-16T10:27:29.910Z,24.20
2022-09-16T10:30:33.413Z,24.40
2022-09-16T10:33:36.161Z,24.50
2022-09-16T10:36:37.746Z,24.40
2022-09-16T10:39:40.053Z,24.30
2022-09-16T10:42:46.546Z,24.50
2022-09-16T10:45:48.939Z,24.40
2022-09-16T10:48:51.938Z,24.50
2022-09-16T10:51:53.169Z,24.00
2022-09-16T10:54:54.599Z,23.70
2022-09-16T10:58:05.172Z,23.70
2022-09-16T11:01:18.306Z,23.90
2022-09-16T11:04:27.953Z,23.70
2022-09-16T11:07:35.720Z,23.80
2022-09-16T11:10:41.537Z,23.90
2022-09-16T11:13:47.049Z,24.00
2022-09-16T11:16:58.888Z,23.80
2022-09-16T11:20:06.433Z,23.90
2022-09-16T11:23:13.611Z,23.90
2022-09-16T11:26:18.684Z,24.20
2022-09-16T11:29:30.834Z,24.30
2022-09-16T11:32:40.631Z,24.30
2022-09-16T11:35:57.876Z,24.20
2022-09-16T11:39:05.224Z,23.90
2022-09-16T11:42:11.359Z,24.00
2022-09-16T11:45:25.600Z,24.80
2022-09-16T11:48:33.501Z,24.30
2022-09-16T11:51:40.755Z,24.10
2022-09-16T11:54:48.335Z,24.40
2022-09-16T11:57:51.706Z,24.20
2022-09-16T12:00:55.906Z,24.20
2022-09-16T12:04:01.202Z,24.20
2022-09-16T12:07:06.520Z,24.30
2022-09-16T12:10:13.920Z,24.40
2022-09-16T12:13:16.601Z,24.70
2022-09-16T12:16:20.208Z,24.90
2022-09-16T12:19:23.664Z,24.30
2022-09-16T12:22:26.765Z,24.80
2022-09-16T12:25:31.817Z,24.60
2022-09-16T12:28:36.260Z,24.80
2022-09-16T12:31:41.123Z,24.90
2022-09-16T12:34:45.297Z,24.90
2022-09-16T12:37:47.874Z,24.40
2022-09-16T12:40:54.995Z,24.80
2022-09-16T12:44:23.567Z,24.90
2022-09-16T12:47:40.793Z,24.90
2022-09-16T12:50:47.870Z,24.70
2022-09-16T12:53:57.459Z,24.90
2022-09-16T12:57:09.890Z,24.90
2022-09-16T13:00:13.981Z,24.70
2022-09-16T13:03:17.082Z,25.00
2022-09-16T13:06:21.973Z,24.70
2022-09-16T13:09:24.705Z,24.90
2022-09-16T13:12:44.671Z,24.90
2022-09-16T13:15:54.335Z,24.90
2022-09-16T13:19:18.750Z,25.10
2022-09-16T13:22:22.833Z,25.00
2022-09-16T13:25:26.033Z,24.90
2022-09-16T13:28:35.129Z,24.70
2022-09-16T13:31:45.842Z,24.90
2022-09-16T13:34:47.261Z,25.20
2022-09-16T13:37:50.674Z,25.50
2022-09-16T13:40:53.609Z,25.10
2022-09-16T13:43:55.081Z,24.70
2022-09-16T13:47:06.982Z,25.00
2022-09-16T13:50:12.633Z,25.00
2022-09-16T13:53:19.747Z,24.80
2022-09-16T13:56:27.245Z,25.10
2022-09-16T13:59:34.385Z,24.90
2022-09-16T14:02:42.066Z,24.70
2022-09-16T14:05:53.069Z,25.00
2022-09-16T14:08:57.508Z,25.10
2022-09-16T14:12:03.093Z,25.20
2022-09-16T14:15:05.664Z,25.10
2022-09-16T14:18:09.346Z,24.90
2022-09-16T14:21:17.646Z,25.10
2022-09-16T14:24:19.936Z,25.00
2022-09-16T14:27:26.577Z,25.20
2022-09-16T14:30:28.125Z,24.90
2022-09-16T14:33:31.241Z,25.00
2022-09-16T14:36:34.087Z,25.10
2022-09-16T14:39:40.154Z,25.40
2022-09-16T14:42:51.216Z,24.90
2022-09-16T14:45:54.705Z,24.70
2022-09-16T14:48:56.145Z,25.10
2022-09-16T14:52:01.432Z,25.00
2022-09-16T14:55:06.872Z,24.90
2022-09-16T14:58:09.126Z,25.10
2022-09-16T15:01:12.415Z,25.10
2022-09-16T15:04:17.618Z,25.00
2022-09-16T15:07:21.156Z,25.00
2022-09-16T15:10:24.818Z,25.00
2022-09-16T15:13:27.660Z,25.00
2022-09-16T15:16:29.037Z,25.00
2022-09-16T15:19:33.361Z,25.00
2022-09-16T15:22:39.213Z,25.10
2022-09-16T15:25:50.746Z,25.30
2022-09-16T15:28:53.824Z,25.20
2022-09-16T15:32:05.577Z,24.80
2022-09-16T15:35:12.627Z,25.00
2022-09-16T15:38:20.269Z,25.10
2022-09-16T15:41:22.166Z,25.10
2022-09-16T15:44:27.212Z,25.10
2022-09-16T15:47:29.731Z,25.00
2022-09-16T15:50:40.273Z,25.00
2022-09-16T15:53:43.524Z,25.00
2022-09-16T15:56:58.068Z,24.90
2022-09-16T16:00:11.023Z,25.10
2022-09-16T16:03:18.300Z,24.70
2022-09-16T16:06:20.429Z,25.00
2022-09-16T16:09:29.929Z,24.80
2022-09-16T16:12:31.792Z,25.00
2022-09-16T16:15:33.991Z,25.00
2022-09-16T16:18:36.135Z,25.00
2022-09-16T16:21:38.286Z,25.00
2022-09-16T16:24:40.438Z,25.00
2022-09-16T16:27:42.568Z,24.90
2022-09-16T16:30:44.240Z,24.80
2022-09-16T16:33:46.902Z,24.90
2022-09-16T16:36:48.232Z,25.00
2022-09-16T16:39:49.618Z,24.90
2022-09-16T16:42:51.514Z,25.00
2022-09-16T16:45:53.695Z,25.20
2022-09-16T16:48:55.050Z,24.80
2022-09-16T16:51:57.238Z,25.00
2022-09-16T16:54:58.759Z,25.00
2022-09-16T16:58:00.680Z,24.90
2022-09-16T17:01:09.411Z,24.90
2022-09-16T17:04:10.893Z,25.10
2022-09-16T17:07:25.832Z,24.90
2022-09-16T17:10:27.986Z,25.00
2022-09-16T17:13:30.066Z,24.80
2022-09-16T17:16:32.256Z,25.00
2022-09-16T17:19:33.541Z,25.00
2022-09-16T17:22:34.881Z,25.10
2022-09-16T17:25:36.347Z,25.40
2022-09-16T17:28:38.813Z,25.00
2022-09-16T17:31:40.786Z,24.80
2022-09-16T17:34:42.035Z,24.90
2022-09-16T17:37:43.287Z,25.00
2022-09-16T17:40:44.598Z,25.10
2022-09-16T17:43:51.401Z,25.00
2022-09-16T17:46:52.751Z,25.30
2022-09-16T17:49:54.603Z,24.70
2022-09-16T17:52:56.053Z,25.00
2022-09-16T17:56:05.605Z,25.00
2022-09-16T17:59:07.796Z,25.00
2022-09-16T18:02:09.357Z,25.00
2022-09-16T18:05:11.533Z,25.00
2022-09-16T18:08:12.839Z,24.90
2022-09-16T18:11:14.811Z,25.00
2022-09-16T18:14:21.314Z,24.70
2022-09-16T18:17:24.524Z,24.90
2022-09-16T18:20:25.849Z,25.00
2022-09-16T18:23:28.026Z,25.00
2022-09-16T18:26:29.939Z,25.00
2022-09-16T18:29:31.878Z,24.90
2022-09-16T18:32:33.089Z,24.60
2022-09-16T18:35:36.432Z,25.10
2022-09-16T18:38:38.284Z,24.90
2022-09-16T18:41:40.693Z,24.50
2022-09-16T18:44:42.568Z,24.70
2022-09-16T18:47:43.920Z,24.90
2022-09-16T18:50:45.157Z,24.70
2022-09-16T18:53:47.039Z,24.70
2022-09-16T18:56:48.489Z,24.40
2022-09-16T18:59:50.371Z,24.70
2022-09-16T19:02:53.010Z,24.50
2022-09-16T19:05:57.495Z,24.30
2022-09-16T19:08:59.256Z,24.60
2022-09-16T19:12:01.509Z,24.60
2022-09-16T19:15:04.177Z,24.60
2022-09-16T19:18:05.491Z,24.70
2022-09-16T19:21:14.010Z,24.60
2022-09-16T19:24:16.261Z,24.90
2022-09-16T19:27:17.762Z,24.60
2022-09-16T19:30:21.463Z,24.50
2022-09-16T19:33:22.721Z,24.30
2022-09-16T19:36:25.627Z,24.30
2022-09-16T19:39:27.180Z,24.30
2022-09-16T19:42:28.455Z,24.40
2022-09-16T19:45:30.512Z,24.50
2022-09-16T19:48:32.431Z,24.80
2022-09-16T19:51:33.942Z,24.20
2022-09-16T19:54:35.183Z,24.50
2022-09-16T19:57:36.669Z,24.90
2022-09-16T20:00:55.437Z,24.60
2022-09-16T20:03:57.897Z,24.20
2022-09-16T20:06:59.533Z,24.30
2022-09-16T20:10:01.117Z,24.20
2022-09-16T20:13:02.521Z,24.40
2022-09-16T20:16:05.456Z,24.60
2022-09-16T20:19:09.093Z,24.60
2022-09-16T20:22:10.510Z,24.50
2022-09-16T20:25:22.957Z,24.60
2022-09-16T20:28:31.571Z,24.10
2022-09-16T20:31:34.767Z,24.30
2022-09-16T20:34:36.130Z,24.40
2022-09-16T20:37:37.625Z,24.10
2022-09-16T20:40:38.932Z,24.00
2022-09-16T20:43:40.316Z,24.30
2022-09-16T20:46:42.484Z,24.00
2022-09-16T20:49:46.827Z,24.40
2022-09-16T20:52:48.311Z,24.00
